Menoken, North Dakota
Current Conditions -  °F | °C
As of 10:52 PM on Monday 20 Oct 2014 (Local Time) from KBIS Reporting Station
Clear Clear  
Wind Chill: 54°   Ceiling: Unl
Heat Index: 54°   Visibility: 10mi
Dew Point: 34°   Wind: 9mph
Humidity: 47%   Direction: 130°SE
Pressure: 29.94"   Gusts: NA
Location:  46.82°N, 100.53°W
Report Text: KBIS 210352Z 13008KT 10SM CLR 12/01 A2994 RMK AO2 SLP142 T01220011
Loading
Personal Weather Stations






























Interactive Weather Map
Tropical Storm Tracking
New forecast layout! Learn more

10-Day Weather Forecast

Advertisements
Track Severe Weather on mobile